createdAt,value
2024-03-13T00:00:26.349Z,7.60
2024-03-13T00:01:34.709Z,5.00
2024-03-13T00:02:22.981Z,2.80
2024-03-13T00:03:10.928Z,0.70
2024-03-13T00:04:00.329Z,3.00
2024-03-13T00:04:48.778Z,4.50
2024-03-13T00:05:36.695Z,2.60
2024-03-13T00:06:24.944Z,3.50
2024-03-13T00:07:14.376Z,3.80
2024-03-13T00:08:02.758Z,1.60
2024-03-13T00:08:50.986Z,2.20
2024-03-13T00:09:46.900Z,1.40
2024-03-13T00:10:35.106Z,2.80
2024-03-13T00:11:23.072Z,2.60
2024-03-13T00:12:17.796Z,2.80
2024-03-13T00:13:06.068Z,4.30
2024-03-13T00:13:56.390Z,3.50
2024-03-13T00:14:51.681Z,2.20
2024-03-13T00:15:40.147Z,2.10
2024-03-13T00:16:28.837Z,2.70
2024-03-13T00:17:23.222Z,2.20
2024-03-13T00:18:11.122Z,2.80
2024-03-13T00:19:04.375Z,3.00
2024-03-13T00:19:55.790Z,5.00
2024-03-13T00:20:43.913Z,2.20
2024-03-13T00:21:37.006Z,2.00
2024-03-13T00:22:26.232Z,2.20
2024-03-13T00:23:14.120Z,2.20
2024-03-13T00:24:04.156Z,2.90
2024-03-13T00:24:54.740Z,3.80
2024-03-13T00:25:42.636Z,5.80
2024-03-13T00:26:30.866Z,1.40
2024-03-13T00:27:19.439Z,5.10
2024-03-13T00:28:08.920Z,5.20
2024-03-13T00:28:56.970Z,1.90
2024-03-13T00:29:48.591Z,3.40
2024-03-13T00:30:36.850Z,2.10
2024-03-13T00:31:24.820Z,3.00
2024-03-13T00:32:16.567Z,4.50
2024-03-13T00:33:05.848Z,3.30
2024-03-13T00:33:53.771Z,1.80
2024-03-13T00:34:44.614Z,3.10
2024-03-13T00:35:32.616Z,3.80
2024-03-13T00:36:20.553Z,1.30
2024-03-13T00:37:10.247Z,1.70
2024-03-13T00:38:00.392Z,2.00
2024-03-13T00:38:48.391Z,3.10
2024-03-13T00:39:36.791Z,2.60
2024-03-13T00:40:24.701Z,3.10
2024-03-13T00:41:12.574Z,2.20
2024-03-13T00:42:00.471Z,1.60
2024-03-13T00:42:48.365Z,2.40
2024-03-13T00:43:36.227Z,1.20
2024-03-13T00:44:24.988Z,2.60
2024-03-13T00:45:13.107Z,2.10
2024-03-13T00:46:01.900Z,1.90
2024-03-13T00:46:50.083Z,2.40
2024-03-13T00:47:38.582Z,3.20
2024-03-13T00:48:32.628Z,2.70
2024-03-13T00:49:20.544Z,2.30
2024-03-13T00:50:09.994Z,3.00
2024-03-13T00:50:58.717Z,2.30
2024-03-13T00:51:46.677Z,0.90
2024-03-13T00:52:36.400Z,2.00
2024-03-13T00:53:24.427Z,1.90
2024-03-13T00:54:12.320Z,4.40
2024-03-13T00:55:00.306Z,4.00
2024-03-13T00:55:48.160Z,2.60
2024-03-13T00:56:36.264Z,1.70
2024-03-13T00:57:24.117Z,1.20
2024-03-13T00:58:12.006Z,1.70
2024-03-13T00:59:02.806Z,1.40
2024-03-13T00:59:50.875Z,2.00
2024-03-13T01:00:39.932Z,3.00
2024-03-13T01:01:27.913Z,3.10
2024-03-13T01:02:16.573Z,2.40
2024-03-13T01:03:06.182Z,1.10
2024-03-13T01:04:00.662Z,4.20
2024-03-13T01:04:49.746Z,3.20
2024-03-13T01:05:37.621Z,1.60
2024-03-13T01:06:30.179Z,1.70
2024-03-13T01:07:18.181Z,4.20
2024-03-13T01:08:06.720Z,1.20
2024-03-13T01:08:54.561Z,2.90
2024-03-13T01:09:42.428Z,2.70
2024-03-13T01:10:30.353Z,1.20
2024-03-13T01:11:18.204Z,1.20
2024-03-13T01:12:07.358Z,2.00
2024-03-13T01:12:55.733Z,1.80
2024-03-13T01:13:43.581Z,3.40
2024-03-13T01:14:32.040Z,2.80
2024-03-13T01:15:21.405Z,2.00
2024-03-13T01:16:09.662Z,3.70
2024-03-13T01:16:59.685Z,2.00
2024-03-13T01:17:48.326Z,2.40
2024-03-13T01:18:36.146Z,2.00
2024-03-13T01:19:24.615Z,3.50
2024-03-13T01:20:16.968Z,3.60
2024-03-13T01:21:04.950Z,2.30
2024-03-13T01:22:07.293Z,2.50
2024-03-13T01:22:57.439Z,2.10
2024-03-13T01:23:45.386Z,1.90
2024-03-13T01:24:33.936Z,3.60
2024-03-13T01:25:21.874Z,1.70
2024-03-13T01:26:10.132Z,1.10
2024-03-13T01:26:57.936Z,2.30
2024-03-13T01:27:47.298Z,2.40
2024-03-13T01:28:37.685Z,1.60
2024-03-13T01:29:26.323Z,2.50
2024-03-13T01:30:15.830Z,2.50
2024-03-13T01:31:07.508Z,3.10
2024-03-13T01:31:58.677Z,3.80
2024-03-13T01:32:48.753Z,1.10
2024-03-13T01:33:39.586Z,2.20
2024-03-13T01:34:27.606Z,1.20
2024-03-13T01:35:17.789Z,1.20
2024-03-13T01:36:06.792Z,2.90
2024-03-13T01:37:13.530Z,0.90
2024-03-13T01:38:02.936Z,2.70
2024-03-13T01:38:50.784Z,0.80
2024-03-13T01:39:38.706Z,0.70
2024-03-13T01:40:49.613Z,1.20
2024-03-13T01:41:56.052Z,1.90
2024-03-13T01:43:05.435Z,0.90
2024-03-13T01:44:16.139Z,1.20
2024-03-13T01:45:27.577Z,1.10
2024-03-13T01:46:35.697Z,2.50
2024-03-13T01:47:42.776Z,2.20
2024-03-13T01:48:49.136Z,1.80
2024-03-13T01:49:55.852Z,3.80
2024-03-13T01:51:03.605Z,3.00
2024-03-13T01:52:15.399Z,1.00
2024-03-13T01:53:22.325Z,0.80
2024-03-13T01:54:29.098Z,4.30
2024-03-13T01:55:26.871Z,1.50
2024-03-13T01:56:28.199Z,3.60
2024-03-13T01:57:17.081Z,2.50
2024-03-13T01:58:04.964Z,1.70
2024-03-13T01:59:04.511Z,2.60
2024-03-13T02:00:15.144Z,2.00
2024-03-13T02:01:22.105Z,3.40
2024-03-13T02:02:26.459Z,1.60
2024-03-13T02:03:18.203Z,2.20
2024-03-13T02:04:06.666Z,1.00
2024-03-13T02:04:55.970Z,1.60
2024-03-13T02:05:45.785Z,3.70
2024-03-13T02:06:33.861Z,1.00
2024-03-13T02:07:24.669Z,2.30
2024-03-13T02:08:15.578Z,1.20
2024-03-13T02:09:04.223Z,1.00
2024-03-13T02:09:52.901Z,1.00
2024-03-13T02:10:42.114Z,1.40
2024-03-13T02:11:30.160Z,1.60
2024-03-13T02:12:18.823Z,1.60
2024-03-13T02:13:11.313Z,1.70
2024-03-13T02:14:05.595Z,1.20
2024-03-13T02:14:53.962Z,3.10
2024-03-13T02:15:44.226Z,1.60
2024-03-13T02:16:33.038Z,3.10
2024-03-13T02:17:21.010Z,1.20
2024-03-13T02:18:20.664Z,1.20
2024-03-13T02:19:09.171Z,2.90
2024-03-13T02:19:58.724Z,1.10
2024-03-13T02:20:48.145Z,1.00
2024-03-13T02:21:36.607Z,2.20
2024-03-13T02:22:27.316Z,0.80
2024-03-13T02:23:25.146Z,0.30
2024-03-13T02:24:13.264Z,1.40
2024-03-13T02:25:01.381Z,0.50
2024-03-13T02:25:52.759Z,1.30
2024-03-13T02:26:43.656Z,2.40
2024-03-13T02:27:33.908Z,3.70
2024-03-13T02:28:30.966Z,1.10
2024-03-13T02:29:18.953Z,1.70
2024-03-13T02:30:07.735Z,0.90
2024-03-13T02:30:56.283Z,1.20
2024-03-13T02:31:44.761Z,4.40
2024-03-13T02:32:32.952Z,0.90
2024-03-13T02:33:21.003Z,2.00
2024-03-13T02:34:10.487Z,1.50
2024-03-13T02:34:59.778Z,1.10
2024-03-13T02:35:47.848Z,2.10
2024-03-13T02:36:35.854Z,2.40
2024-03-13T02:37:23.921Z,0.70
2024-03-13T02:38:12.328Z,0.90
2024-03-13T02:39:01.928Z,1.40
2024-03-13T02:39:49.998Z,1.70
2024-03-13T02:40:38.067Z,0.40
2024-03-13T02:41:26.303Z,0.70
2024-03-13T02:42:14.426Z,1.60
2024-03-13T02:43:02.482Z,1.70
2024-03-13T02:43:50.480Z,1.00
2024-03-13T02:44:38.454Z,3.00
2024-03-13T02:45:26.520Z,0.50
2024-03-13T02:46:14.593Z,1.00
2024-03-13T02:47:02.606Z,2.40
2024-03-13T02:47:50.933Z,0.70
2024-03-13T02:48:39.021Z,1.00
2024-03-13T02:49:27.152Z,1.20
2024-03-13T02:50:15.461Z,2.10
2024-03-13T02:51:03.654Z,0.80
2024-03-13T02:51:51.663Z,1.00
2024-03-13T02:52:43.837Z,0.50
2024-03-13T02:53:32.862Z,1.10
2024-03-13T02:54:20.917Z,1.70
2024-03-13T02:55:10.901Z,1.80
2024-03-13T02:55:59.025Z,1.00
2024-03-13T02:56:47.948Z,0.80
2024-03-13T02:57:35.992Z,0.90
2024-03-13T02:58:24.142Z,0.30
2024-03-13T02:59:12.280Z,1.00
2024-03-13T03:00:00.634Z,0.30
2024-03-13T03:00:48.818Z,0.70
2024-03-13T03:01:38.136Z,0.90
2024-03-13T03:02:26.852Z,1.10
2024-03-13T03:03:15.150Z,2.10
2024-03-13T03:04:03.643Z,1.50
2024-03-13T03:04:52.270Z,2.90
2024-03-13T03:05:40.524Z,0.90
2024-03-13T03:06:28.665Z,0.50
2024-03-13T03:07:17.477Z,1.60
2024-03-13T03:08:05.860Z,1.20
2024-03-13T03:08:53.986Z,0.50
2024-03-13T03:09:42.034Z,0.90
2024-03-13T03:10:30.380Z,1.00
2024-03-13T03:11:18.692Z,5.40
2024-03-13T03:12:10.344Z,0.60
2024-03-13T03:12:59.891Z,1.90
2024-03-13T03:13:48.113Z,1.50
2024-03-13T03:14:40.966Z,0.80
2024-03-13T03:15:30.290Z,1.10
2024-03-13T03:16:19.573Z,1.20
2024-03-13T03:17:08.187Z,0.60
2024-03-13T03:17:56.405Z,0.90
2024-03-13T03:18:44.876Z,0.70
2024-03-13T03:19:35.824Z,1.40
2024-03-13T03:20:24.714Z,1.40
2024-03-13T03:21:14.231Z,3.00
2024-03-13T03:22:03.097Z,0.70
2024-03-13T03:22:51.150Z,1.10
2024-03-13T03:23:39.696Z,1.70
2024-03-13T03:24:32.927Z,1.40
2024-03-13T03:25:21.000Z,1.20
2024-03-13T03:26:08.976Z,0.70
2024-03-13T03:26:57.840Z,0.80
2024-03-13T03:27:45.970Z,1.90
2024-03-13T03:28:34.153Z,1.20
2024-03-13T03:29:22.263Z,1.30
2024-03-13T03:30:13.101Z,1.10
2024-03-13T03:31:05.922Z,1.60
2024-03-13T03:31:55.315Z,0.60
2024-03-13T03:32:43.394Z,0.90
2024-03-13T03:33:31.462Z,2.60
2024-03-13T03:34:19.448Z,1.20
2024-03-13T03:35:07.932Z,1.90
2024-03-13T03:35:55.944Z,1.30
2024-03-13T03:36:44.007Z,3.60
2024-03-13T03:37:32.538Z,1.40
2024-03-13T03:38:20.582Z,1.10
2024-03-13T03:39:16.229Z,1.10
2024-03-13T03:40:14.272Z,2.30
2024-03-13T03:41:02.556Z,1.40
2024-03-13T03:41:50.573Z,1.10
2024-03-13T03:42:38.675Z,0.70
2024-03-13T03:43:27.751Z,1.20
2024-03-13T03:44:15.860Z,0.80
2024-03-13T03:45:04.957Z,3.40
2024-03-13T03:45:54.392Z,1.30
2024-03-13T03:46:42.534Z,1.50
2024-03-13T03:47:30.709Z,1.50
2024-03-13T03:48:18.848Z,1.10
2024-03-13T03:49:07.693Z,2.20
2024-03-13T03:49:55.756Z,1.70
2024-03-13T03:50:43.782Z,1.40
2024-03-13T03:51:31.928Z,2.30
2024-03-13T03:52:20.026Z,1.80
2024-03-13T03:53:08.798Z,1.20
2024-03-13T03:53:56.820Z,0.50
2024-03-13T03:54:45.302Z,2.10
2024-03-13T03:55:33.498Z,1.30
2024-03-13T03:56:22.687Z,1.00
2024-03-13T03:57:11.324Z,2.90
2024-03-13T03:57:59.431Z,0.30
2024-03-13T03:58:49.103Z,0.50
2024-03-13T03:59:39.702Z,1.90
2024-03-13T04:00:31.638Z,2.90
2024-03-13T04:01:19.924Z,1.70
2024-03-13T04:02:08.227Z,3.20
2024-03-13T04:02:56.360Z,1.30
2024-03-13T04:03:44.693Z,1.70
2024-03-13T04:04:33.812Z,1.10
2024-03-13T04:05:21.832Z,1.80
2024-03-13T04:06:10.016Z,1.00
2024-03-13T04:06:58.756Z,1.70
2024-03-13T04:07:46.820Z,2.40
2024-03-13T04:08:34.860Z,1.60
2024-03-13T04:09:22.969Z,0.70
2024-03-13T04:10:11.176Z,0.50
2024-03-13T04:10:59.333Z,1.60
2024-03-13T04:11:48.174Z,1.00
2024-03-13T04:12:36.479Z,1.70
2024-03-13T04:13:24.667Z,0.60
2024-03-13T04:14:12.949Z,1.40
2024-03-13T04:15:06.081Z,1.90
2024-03-13T04:15:54.348Z,2.30
2024-03-13T04:16:45.043Z,0.80
2024-03-13T04:17:33.342Z,1.10
2024-03-13T04:18:21.325Z,3.50
2024-03-13T04:19:12.081Z,2.20
2024-03-13T04:20:02.270Z,3.50
2024-03-13T04:20:51.874Z,0.50
2024-03-13T04:21:40.079Z,1.10
2024-03-13T04:22:28.699Z,2.00
2024-03-13T04:23:17.774Z,2.00
2024-03-13T04:24:08.837Z,1.30
2024-03-13T04:24:56.991Z,1.10
2024-03-13T04:25:45.809Z,0.70
2024-03-13T04:26:35.349Z,3.80
2024-03-13T04:27:23.376Z,2.40
2024-03-13T04:28:13.064Z,1.50
2024-03-13T04:29:01.130Z,1.00
2024-03-13T04:29:49.179Z,0.80
2024-03-13T04:30:37.127Z,1.10
2024-03-13T04:31:26.535Z,1.70
2024-03-13T04:32:14.631Z,1.40
2024-03-13T04:33:02.805Z,0.70
2024-03-13T04:33:50.976Z,1.50
2024-03-13T04:34:39.268Z,1.80
2024-03-13T04:35:27.405Z,0.60
2024-03-13T04:36:15.356Z,5.50
2024-03-13T04:37:03.431Z,2.80
2024-03-13T04:37:52.010Z,1.40
2024-03-13T04:38:40.100Z,1.80
2024-03-13T04:39:28.076Z,2.20
2024-03-13T04:40:16.193Z,1.00
2024-03-13T04:41:04.664Z,1.40
2024-03-13T04:41:52.727Z,1.80
2024-03-13T04:42:41.165Z,1.10
2024-03-13T04:43:29.289Z,2.00
2024-03-13T04:44:17.705Z,0.80
2024-03-13T04:45:08.189Z,1.20
2024-03-13T04:45:57.337Z,2.10
2024-03-13T04:46:45.473Z,0.70
2024-03-13T04:47:37.565Z,1.60
2024-03-13T04:48:28.638Z,2.00
2024-03-13T04:49:17.050Z,1.60
2024-03-13T04:50:05.663Z,1.70
2024-03-13T04:50:53.685Z,0.80
2024-03-13T04:51:41.677Z,1.50
2024-03-13T04:52:30.908Z,0.50
2024-03-13T04:53:24.155Z,1.50
2024-03-13T04:54:12.945Z,2.00
2024-03-13T04:55:01.442Z,2.10
2024-03-13T04:55:50.106Z,1.70
2024-03-13T04:56:38.610Z,1.20
2024-03-13T04:57:26.633Z,5.30
2024-03-13T04:58:14.769Z,1.90
2024-03-13T04:59:02.902Z,2.10
2024-03-13T04:59:51.776Z,2.30
2024-03-13T05:00:39.733Z,0.40
2024-03-13T05:01:27.826Z,1.70
2024-03-13T05:02:16.004Z,1.90
2024-03-13T05:03:04.631Z,1.60
2024-03-13T05:03:52.794Z,1.50
2024-03-13T05:04:40.791Z,1.70
2024-03-13T05:05:28.738Z,2.50
2024-03-13T05:06:16.777Z,0.70
2024-03-13T05:07:05.123Z,2.20
2024-03-13T05:07:55.825Z,2.20
2024-03-13T05:08:44.045Z,1.80
2024-03-13T05:09:32.064Z,1.00
2024-03-13T05:10:23.278Z,1.00
2024-03-13T05:11:11.525Z,0.80
2024-03-13T05:11:59.625Z,1.20
2024-03-13T05:12:49.645Z,1.70
2024-03-13T05:13:40.107Z,2.20
2024-03-13T05:14:28.171Z,1.70
2024-03-13T05:15:16.331Z,2.60
2024-03-13T05:16:05.508Z,1.90
2024-03-13T05:16:53.677Z,3.40
2024-03-13T05:17:41.764Z,2.40
2024-03-13T05:18:29.778Z,1.10
2024-03-13T05:19:18.427Z,1.10
2024-03-13T05:20:13.025Z,2.10
2024-03-13T05:21:01.952Z,1.10
2024-03-13T05:21:50.035Z,1.90
2024-03-13T05:22:38.894Z,1.70
2024-03-13T05:23:26.912Z,2.50
2024-03-13T05:24:15.200Z,1.00
2024-03-13T05:25:05.774Z,2.10
2024-03-13T05:25:56.847Z,1.40
2024-03-13T05:26:45.118Z,1.30
2024-03-13T05:27:33.918Z,2.70
2024-03-13T05:28:23.007Z,3.00
2024-03-13T05:29:11.618Z,3.00
2024-03-13T05:29:59.638Z,1.50
2024-03-13T05:30:47.680Z,3.50
2024-03-13T05:31:36.096Z,2.30
2024-03-13T05:32:24.165Z,3.90
2024-03-13T05:33:12.303Z,1.50
2024-03-13T05:34:01.568Z,1.90
2024-03-13T05:34:50.954Z,2.90
2024-03-13T05:35:41.891Z,3.60
2024-03-13T05:36:30.154Z,5.50
2024-03-13T05:37:18.200Z,2.70
2024-03-13T05:38:06.237Z,2.20
2024-03-13T05:38:54.532Z,2.10
2024-03-13T05:39:42.741Z,2.30
2024-03-13T05:40:30.921Z,2.60
2024-03-13T05:41:20.845Z,1.10
2024-03-13T05:42:08.969Z,2.60
2024-03-13T05:42:57.245Z,2.90
2024-03-13T05:43:45.262Z,2.50
2024-03-13T05:44:35.055Z,3.10
2024-03-13T05:45:23.083Z,2.40
2024-03-13T05:46:11.852Z,2.00
2024-03-13T05:47:00.567Z,0.80
2024-03-13T05:47:50.121Z,2.40
2024-03-13T05:48:38.201Z,2.00
2024-03-13T05:49:26.388Z,0.70
2024-03-13T05:50:18.887Z,3.60
2024-03-13T05:51:07.934Z,1.60
2024-03-13T05:51:58.037Z,2.10
2024-03-13T05:52:49.249Z,3.50
2024-03-13T05:53:38.782Z,2.70
2024-03-13T05:54:29.364Z,2.30
2024-03-13T05:55:21.600Z,1.30
2024-03-13T05:56:10.594Z,2.30
2024-03-13T05:56:59.388Z,1.90
2024-03-13T05:57:47.659Z,1.50
2024-03-13T05:58:36.059Z,1.60
2024-03-13T05:59:24.146Z,4.30
2024-03-13T06:00:18.612Z,2.50
2024-03-13T06:01:09.525Z,1.90
2024-03-13T06:01:57.842Z,2.20
2024-03-13T06:02:46.053Z,1.10
2024-03-13T06:03:33.988Z,1.20
2024-03-13T06:04:23.266Z,2.80
2024-03-13T06:05:11.415Z,1.90
2024-03-13T06:05:59.611Z,1.00
2024-03-13T06:06:49.699Z,2.20
2024-03-13T06:07:38.786Z,1.30
2024-03-13T06:08:28.672Z,4.50
2024-03-13T06:09:17.577Z,2.60
2024-03-13T06:10:06.894Z,0.90
2024-03-13T06:10:55.140Z,3.30
2024-03-13T06:11:43.354Z,1.60
2024-03-13T06:12:32.008Z,3.40
2024-03-13T06:13:20.662Z,2.20
2024-03-13T06:14:08.898Z,4.20
2024-03-13T06:14:56.912Z,3.40
2024-03-13T06:15:44.949Z,3.70
2024-03-13T06:16:33.072Z,5.10
2024-03-13T06:17:22.873Z,1.80
2024-03-13T06:18:13.584Z,2.10
2024-03-13T06:19:01.934Z,8.20
2024-03-13T06:19:50.106Z,3.10
2024-03-13T06:20:38.255Z,2.50
2024-03-13T06:21:26.911Z,3.80
2024-03-13T06:22:15.746Z,4.50
2024-03-13T06:23:04.397Z,5.50
2024-03-13T06:23:59.776Z,2.90
2024-03-13T06:24:48.047Z,3.60
2024-03-13T06:25:42.652Z,3.50
2024-03-13T06:26:30.972Z,3.10
2024-03-13T06:27:28.682Z,2.70
2024-03-13T06:28:36.105Z,1.70
2024-03-13T06:29:42.431Z,2.90
2024-03-13T06:30:32.455Z,1.80
2024-03-13T06:31:20.568Z,1.70
2024-03-13T06:32:08.634Z,3.10
2024-03-13T06:32:56.630Z,5.30
2024-03-13T06:33:45.165Z,3.40
2024-03-13T06:34:35.896Z,3.00
2024-03-13T06:35:25.110Z,3.20
2024-03-13T06:36:13.173Z,2.50
2024-03-13T06:37:01.227Z,3.30
2024-03-13T06:37:49.274Z,4.40
2024-03-13T06:38:37.341Z,3.40
2024-03-13T06:39:25.431Z,3.20
2024-03-13T06:40:13.524Z,3.80
2024-03-13T06:41:01.552Z,2.50
2024-03-13T06:41:52.135Z,2.80
2024-03-13T06:42:40.104Z,4.00
2024-03-13T06:43:28.372Z,5.00
2024-03-13T06:44:16.469Z,2.30
2024-03-13T06:45:04.902Z,2.70
2024-03-13T06:45:53.877Z,1.90
2024-03-13T06:46:41.895Z,3.90
2024-03-13T06:47:30.852Z,3.60
2024-03-13T06:48:19.055Z,2.70
2024-03-13T06:49:07.143Z,6.80
2024-03-13T06:49:55.210Z,1.70
2024-03-13T06:50:43.483Z,1.80
2024-03-13T06:51:31.476Z,3.40
2024-03-13T06:52:19.758Z,4.80
2024-03-13T06:53:07.942Z,3.80
2024-03-13T06:53:55.966Z,4.30
2024-03-13T06:54:45.437Z,3.40
2024-03-13T06:55:33.601Z,4.80
2024-03-13T06:56:21.667Z,3.50
2024-03-13T06:57:15.897Z,2.60
2024-03-13T06:58:05.567Z,4.10
2024-03-13T06:58:53.629Z,4.70
2024-03-13T06:59:43.255Z,3.90
2024-03-13T07:00:34.625Z,6.70
2024-03-13T07:01:24.326Z,2.90
2024-03-13T07:02:15.748Z,3.10
2024-03-13T07:03:04.277Z,4.00
2024-03-13T07:03:53.635Z,4.80
2024-03-13T07:04:41.891Z,3.90
2024-03-13T07:05:30.286Z,3.70
2024-03-13T07:06:19.403Z,4.60
2024-03-13T07:07:13.702Z,4.40
2024-03-13T07:08:01.765Z,5.70
2024-03-13T07:08:49.824Z,4.90
2024-03-13T07:09:38.587Z,6.80
2024-03-13T07:10:26.726Z,6.00
2024-03-13T07:11:14.886Z,2.50
2024-03-13T07:12:03.023Z,2.90
2024-03-13T07:12:51.102Z,6.30
2024-03-13T07:13:39.566Z,2.20
2024-03-13T07:14:27.749Z,3.50
2024-03-13T07:15:16.646Z,4.00
2024-03-13T07:16:05.016Z,2.70
2024-03-13T07:16:53.475Z,4.40
2024-03-13T07:17:44.271Z,2.10
2024-03-13T07:18:35.829Z,5.30
2024-03-13T07:19:24.628Z,5.00
2024-03-13T07:20:12.849Z,3.70
2024-03-13T07:21:01.401Z,7.90
2024-03-13T07:21:49.707Z,7.10
2024-03-13T07:22:39.977Z,3.40
2024-03-13T07:23:28.267Z,2.60
2024-03-13T07:24:18.876Z,4.10
2024-03-13T07:25:10.882Z,3.00
2024-03-13T07:26:00.741Z,4.00
2024-03-13T07:26:48.786Z,2.10
2024-03-13T07:27:37.583Z,3.60
2024-03-13T07:28:25.652Z,4.20
2024-03-13T07:29:13.709Z,2.50
2024-03-13T07:30:01.783Z,3.60
2024-03-13T07:30:49.955Z,5.10
2024-03-13T07:31:40.901Z,5.20
2024-03-13T07:32:29.315Z,5.20
2024-03-13T07:33:18.094Z,5.20
2024-03-13T07:34:08.375Z,4.50
2024-03-13T07:34:56.829Z,6.10
2024-03-13T07:35:45.501Z,10.80
2024-03-13T07:36:33.664Z,12.10
2024-03-13T07:37:22.059Z,7.00
2024-03-13T07:38:13.671Z,17.60
2024-03-13T07:39:01.759Z,8.90
2024-03-13T07:39:49.777Z,16.20
2024-03-13T07:40:41.928Z,11.80
2024-03-13T07:41:33.090Z,16.60
2024-03-13T07:42:21.136Z,5.70
2024-03-13T07:43:10.078Z,7.20
2024-03-13T07:43:58.297Z,8.80
2024-03-13T07:44:49.266Z,5.40
2024-03-13T07:45:41.288Z,8.00
2024-03-13T07:46:29.568Z,9.90
2024-03-13T07:47:17.610Z,9.90
2024-03-13T07:48:09.912Z,10.90
2024-03-13T07:48:58.230Z,10.30
2024-03-13T07:49:46.992Z,12.90
2024-03-13T07:50:36.432Z,11.10
2024-03-13T07:51:24.628Z,5.50
2024-03-13T07:52:13.982Z,11.40
2024-03-13T07:53:03.749Z,10.40
2024-03-13T07:53:52.109Z,8.00
2024-03-13T07:54:41.021Z,7.10
2024-03-13T07:55:29.787Z,4.80
2024-03-13T07:56:19.427Z,4.30
2024-03-13T07:57:10.007Z,5.30
2024-03-13T07:57:58.349Z,2.50
2024-03-13T07:58:46.481Z,4.50
2024-03-13T07:59:34.610Z,3.40
2024-03-13T08:00:23.469Z,3.20
2024-03-13T08:01:11.905Z,5.00
2024-03-13T08:02:00.098Z,3.70
2024-03-13T08:02:48.239Z,5.80
2024-03-13T08:03:36.416Z,3.90
2024-03-13T08:04:25.599Z,3.20
2024-03-13T08:05:14.252Z,3.90
2024-03-13T09:05:53.223Z,4.10
2024-03-13T09:06:41.734Z,4.30
2024-03-13T09:07:32.094Z,3.20
2024-03-13T09:08:30.866Z,4.30
2024-03-13T09:09:29.667Z,8.40
2024-03-13T09:10:19.559Z,6.20
2024-03-13T09:11:07.750Z,8.80
2024-03-13T09:11:56.363Z,6.10
2024-03-13T09:12:44.359Z,7.60
2024-03-13T09:13:32.434Z,5.70
2024-03-13T09:14:21.535Z,4.00
2024-03-13T09:15:12.963Z,4.40
2024-03-13T09:16:05.711Z,6.80
2024-03-13T09:16:53.945Z,6.40
2024-03-13T09:17:42.008Z,4.40
2024-03-13T09:18:30.224Z,3.80
2024-03-13T09:19:19.368Z,2.70
2024-03-13T09:20:08.665Z,3.60
2024-03-13T09:20:56.831Z,5.60
2024-03-13T09:21:48.584Z,4.60
2024-03-13T09:22:36.732Z,4.20
2024-03-13T09:23:24.887Z,2.90
2024-03-13T09:24:13.623Z,3.90
2024-03-13T09:25:02.385Z,4.90
2024-03-13T09:25:50.572Z,5.80
2024-03-13T09:26:39.773Z,3.30
2024-03-13T09:27:28.042Z,2.00
2024-03-13T09:28:16.415Z,4.80
2024-03-13T09:29:04.470Z,5.00
2024-03-13T09:29:53.663Z,2.40
2024-03-13T09:30:42.034Z,3.90
2024-03-13T09:31:30.522Z,3.40
2024-03-13T09:32:22.681Z,3.60
2024-03-13T09:33:12.433Z,6.80
2024-03-13T09:34:00.873Z,4.00
2024-03-13T09:34:49.829Z,3.80
2024-03-13T09:35:38.293Z,2.30
2024-03-13T09:36:26.717Z,5.90
2024-03-13T09:37:17.378Z,2.40
2024-03-13T09:38:06.928Z,4.50
2024-03-13T09:38:55.124Z,1.90
2024-03-13T09:39:43.256Z,4.30
2024-03-13T09:40:31.328Z,4.10
2024-03-13T09:41:19.533Z,2.10
2024-03-13T09:42:18.330Z,4.40
2024-03-13T09:43:09.366Z,2.80
2024-03-13T09:44:00.717Z,2.10
2024-03-13T09:44:49.529Z,6.00
2024-03-13T09:45:40.244Z,3.60
2024-03-13T09:46:28.670Z,5.00
2024-03-13T09:47:17.328Z,4.70
2024-03-13T09:48:06.590Z,6.20
2024-03-13T09:48:58.638Z,4.60
2024-03-13T09:49:47.340Z,2.70
2024-03-13T09:50:43.883Z,4.70
2024-03-13T09:51:37.707Z,4.30
2024-03-13T09:52:25.821Z,4.10
2024-03-13T09:53:14.453Z,2.50
2024-03-13T09:54:05.036Z,5.80
2024-03-13T09:54:53.977Z,7.20
2024-03-13T09:55:42.481Z,2.50
2024-03-13T09:56:31.106Z,2.90
2024-03-13T09:57:21.083Z,2.80
2024-03-13T09:58:14.893Z,2.60
2024-03-13T09:59:06.242Z,3.80
2024-03-13T09:59:57.795Z,5.10
2024-03-13T10:00:45.984Z,5.00
2024-03-13T10:01:37.451Z,5.70
2024-03-13T10:02:34.415Z,2.80
2024-03-13T10:03:25.591Z,4.70
2024-03-13T10:04:21.889Z,4.80
2024-03-13T10:05:13.412Z,3.20
2024-03-13T10:06:15.059Z,4.20
2024-03-13T10:07:03.657Z,5.10
2024-03-13T10:07:52.185Z,6.80
2024-03-13T10:08:46.344Z,4.10
2024-03-13T10:09:37.032Z,5.30
2024-03-13T10:10:27.891Z,5.40
2024-03-13T10:11:18.876Z,4.90
2024-03-13T10:12:11.855Z,5.60
2024-03-13T10:13:03.134Z,8.20
2024-03-13T10:13:53.519Z,3.70
2024-03-13T10:14:42.467Z,4.50
2024-03-13T10:15:30.926Z,2.80
2024-03-13T10:16:23.853Z,4.50
2024-03-13T10:17:14.616Z,4.70
2024-03-13T10:18:15.064Z,10.20
2024-03-13T10:19:04.182Z,5.10
2024-03-13T10:19:56.417Z,3.60
2024-03-13T10:21:14.231Z,6.10
2024-03-13T10:22:03.464Z,10.30
2024-03-13T10:22:54.410Z,7.60
2024-03-13T10:23:46.263Z,3.80
2024-03-13T10:24:35.625Z,4.50
2024-03-13T10:25:24.545Z,4.40
2024-03-13T10:26:13.155Z,1.80
2024-03-13T10:27:03.799Z,4.00
2024-03-13T10:27:51.885Z,2.90
2024-03-13T10:28:40.015Z,7.40
2024-03-13T10:29:28.668Z,5.80
2024-03-13T10:30:16.941Z,4.90
2024-03-13T10:31:05.637Z,7.40
2024-03-13T10:31:54.760Z,4.90
2024-03-13T10:32:43.873Z,8.60
2024-03-13T10:33:36.347Z,3.80
2024-03-13T10:34:25.232Z,4.10
2024-03-13T10:35:16.200Z,3.80
2024-03-13T10:36:04.613Z,3.20
2024-03-13T10:37:01.208Z,4.10
2024-03-13T10:37:58.028Z,4.90
2024-03-13T10:38:48.651Z,3.80
2024-03-13T10:39:36.998Z,4.10
2024-03-13T10:40:26.427Z,5.20
2024-03-13T10:41:15.374Z,6.90
2024-03-13T10:42:03.464Z,8.90
2024-03-13T10:42:51.841Z,6.50
2024-03-13T10:43:42.484Z,2.80
2024-03-13T10:44:31.068Z,4.40
2024-03-13T10:45:19.245Z,4.90
2024-03-13T10:46:07.433Z,4.10
2024-03-13T10:46:55.529Z,5.70
2024-03-13T10:47:43.771Z,5.20
2024-03-13T10:48:32.007Z,5.70
2024-03-13T10:49:20.277Z,5.70
2024-03-13T10:50:13.575Z,6.60
2024-03-13T10:51:04.846Z,7.50
2024-03-13T10:51:57.554Z,10.00
2024-03-13T10:53:34.476Z,5.80
2024-03-13T10:54:22.728Z,5.50
2024-03-13T10:55:10.714Z,4.30
2024-03-13T10:55:58.808Z,8.00
2024-03-13T10:56:51.739Z,8.80
2024-03-13T10:57:39.996Z,5.30
2024-03-13T10:58:27.996Z,5.70
2024-03-13T10:59:16.212Z,3.40
2024-03-13T11:00:12.799Z,5.50
2024-03-13T11:01:01.022Z,7.50
2024-03-13T11:01:52.458Z,7.30
2024-03-13T11:02:40.930Z,4.00
2024-03-13T11:03:29.506Z,4.40
2024-03-13T11:04:18.677Z,5.00
2024-03-13T11:05:12.621Z,3.80
2024-03-13T11:06:01.746Z,4.50
2024-03-13T11:06:49.891Z,5.30
2024-03-13T11:07:39.782Z,3.50
2024-03-13T11:08:29.143Z,3.60
2024-03-13T11:09:23.329Z,6.10
2024-03-13T11:10:14.809Z,2.80
2024-03-13T11:11:13.536Z,4.70
2024-03-13T11:12:24.759Z,2.40
2024-03-13T11:13:14.757Z,2.70
2024-03-13T11:14:04.593Z,3.10
2024-03-13T11:14:57.321Z,2.70
2024-03-13T11:15:46.825Z,3.10
2024-03-13T11:16:40.697Z,1.40
2024-03-13T11:17:33.264Z,6.90
2024-03-13T11:18:23.393Z,4.10
2024-03-13T11:19:17.341Z,5.00
2024-03-13T11:20:22.189Z,3.40
2024-03-13T11:21:16.610Z,6.60
2024-03-13T11:22:06.461Z,3.40
2024-03-13T11:23:07.566Z,3.30
2024-03-13T11:24:04.236Z,5.00
2024-03-13T11:24:52.339Z,3.40
2024-03-13T11:25:43.175Z,3.30
2024-03-13T11:26:39.175Z,5.10
2024-03-13T11:27:28.824Z,1.90
2024-03-13T11:28:37.929Z,3.40
2024-03-13T11:29:34.889Z,5.60
2024-03-13T11:30:23.371Z,3.80
2024-03-13T11:31:12.802Z,2.50
2024-03-13T11:32:01.619Z,3.10
2024-03-13T11:32:50.890Z,4.40
2024-03-13T11:33:39.320Z,4.90
2024-03-13T11:34:28.459Z,1.90
2024-03-13T11:35:18.549Z,2.90
2024-03-13T11:36:11.128Z,3.40
2024-03-13T11:36:59.668Z,3.50
2024-03-13T11:37:50.443Z,4.90
2024-03-13T11:38:39.754Z,3.00
2024-03-13T11:39:28.902Z,2.30
2024-03-13T11:40:19.024Z,4.60
2024-03-13T11:41:08.141Z,3.90
2024-03-13T11:42:07.301Z,3.80
2024-03-13T11:43:02.283Z,3.60
2024-03-13T11:43:50.786Z,2.20
2024-03-13T11:44:42.175Z,4.00
2024-03-13T11:45:31.332Z,3.00
2024-03-13T11:46:24.187Z,1.20
2024-03-13T11:47:12.718Z,2.40
2024-03-13T11:48:02.520Z,2.20
2024-03-13T11:48:51.356Z,4.00
2024-03-13T11:49:41.545Z,1.90
2024-03-13T11:50:31.362Z,2.10
2024-03-13T11:51:19.522Z,2.80
2024-03-13T11:52:11.265Z,2.30
2024-03-13T11:53:02.384Z,2.70
2024-03-13T11:53:50.937Z,2.10
2024-03-13T11:54:43.755Z,2.90
2024-03-13T11:55:32.228Z,1.80
2024-03-13T11:56:22.325Z,2.70
2024-03-13T11:57:14.249Z,3.30
2024-03-13T11:58:08.014Z,2.10
2024-03-13T11:58:57.338Z,4.90
2024-03-13T11:59:52.601Z,2.70
2024-03-13T12:00:40.751Z,2.60
2024-03-13T12:01:28.856Z,4.60
2024-03-13T12:02:32.453Z,2.90
2024-03-13T12:03:21.892Z,3.30
2024-03-13T12:04:12.146Z,1.30
2024-03-13T12:05:05.849Z,2.60
2024-03-13T12:05:55.487Z,3.00
2024-03-13T12:06:48.484Z,1.50